Salinas Municipal Airport
KSNS : now visible

Airfield :











YOU CAN JOIN US ON...

 
LOGIN :

Register | Disclaimer

   EN    FR    IT 

 









Legend :    VFR   Marginal VFR   IFR   Intensive IFR   Very Intensive IFR
Visi :
Ceiling :
>= 8 km
>= 3000ft
5 to 8 km
1000 to 3000 ft
1500m to 5 km
500 to 1000 ft
800 to 1500m
200 to 500 ft
< 800m
< 200 ft
Symbols :   Thunderstorms  Fog  Heavy snow  Heavy precipitations  Wind > 20 kt






- Airport Elevation : 85 ft


KSNS - Salinas Municipal

CURRENT METAR :
  • 110453Z AUTO 32007KT 10SM BKN100 13/11 A3026 RMK AO2 SLP254 T01280106

EXPIRED METARs :
  • 110419Z AUTO 34006KT 10SM SCT012 SCT110 13/11 A3023 RMK AO2 T01280106
  • 110410Z AUTO 01005KT 10SM BKN012 BKN110 13/11 A3023 RMK AO2 T01280106
  • 110353Z AUTO 01005KT 10SM FEW120 13/10 A3023 RMK AO2 SLP246 T01280100
  • 110253Z AUTO 34006KT 10SM CLR 13/10 A3022 RMK AO2 SLP241 T01280100 53012
  • 110153Z 32003KT 10SM CLR 13/10 A3019 RMK AO2 SLP230 T01330100

TAF KSNS
Valid from the 11 at 03:00 until the 12 at 00:00 UTC


110311Z 1103/1124 31006KT P6SM FEW025 BKN150
FM110600 31004KT P6SM SCT030 BKN060
FM110900 12006KT P6SM VCSH OVC025
FM111300 11012KT P6SM VCSH OVC020
FM111900 12006KT P6SM BKN030



MET'MAP, your aeronautical weather chart ! - Copyright ORBIFLY December 2007 - Disclaimer

ORBIFLY MET'MAP TEAM :

Programming & Development : Alexandra Zaïnal
Concept & original design : Baudouin d'Aumeries
Assistance for programming : Marc-Olivier Méhu
Technical & hardware support : Manuel Goepfert

Contact : metmap@orbifly.com




SOURCES & CREDITS :

   NOAA       Earth
Advisory